Sunday, December 17, 2017, 8:52 PM CST
Back to Local

KJLN, Joplin Regional Airport

Location: Webb City, MO, United States Lat: 37.15
Local Time: 8:52 PM CST ( 2:52 GMT) Lon: -94.5
Time Zone: US/Central Elev: 980 ft

Show me the last for .
Show Decoded

2017-12-17 19:53 METAR KJLN 180153Z 00000KT 5SM BR OVC009 07/07 A3008 RMK AO2 CIG 007V011 SLP189
                 T00720072 =
2017-12-17 18:53 METAR KJLN 180053Z 24004KT 10SM OVC013 07/07 A3008 RMK AO2 SLP189 T00720067 =
2017-12-17 17:53 METAR KJLN 172353Z 23004KT 10SM OVC013 08/07 A3007 RMK AO2 SLP185 T00780067
                 10078 20072 53015 =
2017-12-17 16:53 METAR KJLN 172253Z 23004KT 10SM OVC013 08/07 A3005 RMK AO2 SLP179 T00780067 =
2017-12-17 15:53 METAR KJLN 172153Z 25006KT 10SM OVC014 08/07 A3004 RMK AO2 SLP174 T00780067 =
2017-12-17 14:53 METAR KJLN 172053Z 27006KT 10SM OVC019 08/07 A3003 RMK AO2 SLP169 T00780067
                 56002 =
2017-12-17 14:28 METAR KJLN 172028Z 26006KT 10SM SCT012 OVC021 08/07 A3002 RMK AO2 T00780067 =
2017-12-17 13:53 METAR KJLN 171953Z 25007KT 10SM BKN010 08/07 A3003 RMK AO2 SLP169 T00780067 =
2017-12-17 13:50 METAR KJLN 171950Z 23008KT 10SM BKN010 08/07 A3003 RMK AO2 =
2017-12-17 12:53 METAR KJLN 171853Z 23007KT 10SM BKN009 OVC021 08/07 A3003 RMK AO2 SLP171
                 T00780072 =
2017-12-17 11:53 METAR KJLN 171753Z 21008KT 7SM BKN007 OVC021 07/07 A3006 RMK AO2 SLP180 60002
                 T00720072 10078 20056 58002 =
2017-12-17 11:43 METAR KJLN 171743Z 20007KT 6SM BR BKN007 OVC021 07/07 A3006 RMK AO2 T00720072 =
2017-12-17 11:15 METAR KJLN 171715Z 23005KT 3SM BR OVC003 07/07 A3007 RMK AO2 T00720072 =
2017-12-17 10:53 METAR KJLN 171653Z 21007KT 3SM BR OVC006 07/07 A3008 RMK AO2 SLP188 T00670067 =
2017-12-17 10:20 METAR KJLN 171620Z 20007KT 4SM BR OVC005 07/07 A3008 RMK AO2 T00670067 =
2017-12-17 09:53 METAR KJLN 171553Z 20006KT 2SM BR OVC005 07/07 A3008 RMK AO2 SLP189 T00670067 =
2017-12-17 08:53 METAR KJLN 171453Z 20005KT 5SM BR OVC007 06/06 A3007 RMK AO2 CIG 005V011 SLP182
                 60002 T00610061 51012 =
2017-12-17 08:23 METAR KJLN 171423Z 17004KT 3SM BR BKN006 OVC013 06/06 A3005 RMK AO2 T00610061 =
2017-12-17 07:53 METAR KJLN 171353Z 20004KT 3SM BR BKN004 OVC017 06/06 A3006 RMK AO2 RAB10E18
                 SLP180 P0000 T00610061 =
2017-12-17 07:36 METAR KJLN 171336Z 19006KT 4SM BR BKN004 OVC017 06/06 A3006 RMK AO2 RAB10E18
                 P0000 T00560056 =
2017-12-17 06:53 METAR KJLN 171253Z 19006KT 3SM BR BKN006 BKN010 OVC018 06/06 A3005 RMK AO2
                 RAE21B37E51 SLP178 P0002 T00560056 =
2017-12-17 06:33 METAR KJLN 171233Z 18006KT 3SM BR SCT006 BKN013 OVC020 06/06 A3004 RMK AO2 RAE21
                 P0002 T00560056 =
2017-12-17 05:53 METAR KJLN 171153Z 18006KT 7SM -RA OVC015 06/06 A3003 RMK AO2 RAE08B41 SLP170
                 P0000 60037 70037 T00560056 10078 20056 53004 =
2017-12-17 05:13 METAR KJLN 171113Z AUTO 16004KT 5SM BR SCT009 BKN015 OVC025 06/06 A3002 RMK AO2
                 RAE08 P0000 T00560056 =
2017-12-17 04:53 METAR KJLN 171053Z AUTO 13004KT 3SM -RA BR SCT020 BKN025 OVC032 06/06 A3000 RMK
                 AO2 SLP160 P0005 T00560056 =
2017-12-17 04:48 METAR KJLN 171048Z AUTO 13004KT 2SM RA BR SCT020 BKN025 OVC032 06/06 A3000 RMK
                 AO2 P0005 =
2017-12-17 03:53 METAR KJLN 170953Z AUTO 14004KT 5SM -RA BR SCT010 BKN016 OVC025 06/06 A3002 RMK
                 AO2 SLP163 P0006 T00560056 =
2017-12-17 03:40 METAR KJLN 170940Z AUTO 18006KT 4SM RA BR BKN010 OVC016 06/06 A3004 RMK AO2 CIG
                 006V014 P0006 T00560056 =
2017-12-17 03:22 METAR KJLN 170922Z AUTO 17005KT 5SM -RA BR FEW009 BKN024 OVC055 06/06 A3002 RMK
                 AO2 P0003 T00560056 =
2017-12-17 03:11 METAR KJLN 170911Z AUTO 12005KT 5SM -RA BR FEW011 BKN055 OVC070 06/06 A3001 RMK
                 AO2 P0002 T00560056 =
2017-12-17 02:53 METAR KJLN 170853Z AUTO 14005KT 7SM -RA FEW016 BKN022 OVC047 06/06 A3002 RMK AO2
                 SLP164 P0006 60026 T00560056 58007 =
2017-12-17 02:03 METAR KJLN 170803Z AUTO 17004KT 5SM RA BR BKN029 BKN039 OVC049 06/06 A3004 RMK
                 AO2 P0001 T00610061 =
2017-12-17 01:53 METAR KJLN 170753Z AUTO 19005KT 4SM RA BR OVC030 06/06 A3004 RMK AO2 SLP173
                 P0014 T00610061 =
2017-12-17 00:53 METAR KJLN 170653Z AUTO 19007KT 4SM RA BR BKN035 OVC070 06/06 A3005 RMK AO2
                 SLP176 P0006 T00610056 =
2017-12-16 23:53 METAR KJLN 170553Z AUTO 20013KT 10SM -RA OVC075 08/03 A3004 RMK AO2 RAB02 SLP171
                 P0000 60000 T00780028 10111 20078 401500033 53009 =
2017-12-16 22:53 METAR KJLN 170453Z AUTO 17010KT 10SM SCT090 BKN110 11/M03 A3000 RMK AO2 SLP159
                 T01061028 =
2017-12-16 21:53 METAR KJLN 170353Z AUTO 17010KT 10SM CLR 10/M02 A3001 RMK AO2 SLP163 T01001022 =
2017-12-16 20:53 METAR KJLN 170253Z 16008KT 10SM CLR 10/M02 A3001 RMK AO2 SLP162 T01001022 53007
                 =

Support USWX by starting your Amazon purchase here.